Time;durP1;ratioP1;P1;durP2;ratioP2;P2;SDS_P1;SDS_P2;PMS_P1;PMS_P2;Temp;Humidity;BMP_temperature;BMP_pressure;BME280_temperature;BME280_humidity;BME280_pressure;Samples;Min_cycle;Max_cycle;Signal;HPM_P1;HPM_P2
2023/01/16 00:02:06;;;;;;;;;;;;;;;;;;6255423;22;20329;-92
2023/01/16 00:04:34;;;;;;;;;;;;;;;;;;6255316;22;19923;-91
2023/01/16 00:06:59;;;;;;;;;;;;;;;;;;6281098;22;19915;-92
2023/01/16 00:09:25;;;;;;;;;;;;;;;;;;6254741;22;20396;-91
2023/01/16 00:11:51;;;;;;;;;;;;;;;;;;6255509;22;19991;-91
2023/01/16 00:14:17;;;;;;;;;;;;;;;;;;6255461;22;19987;-92
2023/01/16 00:16:43;;;;;;;;;;;;;;;;;;6255403;22;20249;-91
2023/01/16 00:19:09;;;;;;;;;;;;;;;;;;6254758;22;19918;-92
2023/01/16 00:21:35;;;;;;;;;;;;;;;;;;6255638;22;19915;-91
2023/01/16 00:24:01;;;;;;;;;;;;;;;;;;6256156;22;20230;-92
2023/01/16 00:26:27;;;;;;;;;;;;;;;;;;6257353;22;19915;-91
2023/01/16 00:28:52;;;;;;;;;;;;;;;;;;6256910;22;19921;-92
2023/01/16 00:31:18;;;;;;;;;;;;;;;;;;6283241;22;19915;-92
2023/01/16 00:33:44;;;;;;;;;;;;;;;;;;6257453;22;19915;-90
2023/01/16 00:36:10;;;;;;;;;;;;;;;;;;6257351;22;20332;-92
2023/01/16 00:38:36;;;;;;;;;;;;;;;;;;6257497;22;19922;-91
2023/01/16 00:41:02;;;;;;;;;;;;;;;;;;6256961;22;19922;-92
2023/01/16 00:43:28;;;;;;;;;;;;;;;;;;6256996;22;19915;-92
2023/01/16 00:45:56;;;;;;;;;;;;;;;;;;6257362;22;19914;-92
2023/01/16 00:48:22;;;;;;;;;;;;;;;;;;6257492;22;20004;-92
2023/01/16 00:50:47;;;;;;;;;;;;;;;;;;6256992;22;19915;-92
2023/01/16 00:53:13;;;;;;;;;;;;;;;;;;6282523;22;19961;-91
2023/01/16 00:55:41;;;;;;;;;;;;;;;;;;6282715;22;20333;-92
2023/01/16 00:58:07;;;;;;;;;;;;;;;;;;6256774;22;20004;-90
2023/01/16 01:00:33;;;;;;;;;;;;;;;;;;6256739;22;19918;-91
2023/01/16 01:02:59;;;;;;;;;;;;;;;;;;6257019;22;19918;-91
2023/01/16 01:05:25;;;;;;;;;;;;;;;;;;6256808;22;19919;-91
2023/01/16 01:07:50;;;;;;;;;;;;;;;;;;6257110;22;19990;-91
2023/01/16 01:10:16;;;;;;;;;;;;;;;;;;6256191;22;19921;-91
2023/01/16 01:12:42;;;;;;;;;;;;;;;;;;6256941;22;20386;-91
2023/01/16 01:15:08;;;;;;;;;;;;;;;;;;6256826;22;19990;-91
2023/01/16 01:17:34;;;;;;;;;;;;;;;;;;6257039;22;19915;-92
2023/01/16 01:20:00;;;;;;;;;;;;;;;;;;6281818;22;19919;-91
2023/01/16 01:22:26;;;;;;;;;;;;;;;;;;6256742;22;20256;-92
2023/01/16 01:24:52;;;;;;;;;;;;;;;;;;6282374;22;19969;-92
2023/01/16 01:27:18;;;;;;;;;;;;;;;;;;6256749;22;19919;-90
2023/01/16 01:29:44;;;;;;;;;;;;;;;;;;6256558;22;20355;-91
2023/01/16 01:32:10;;;;;;;;;;;;;;;;;;6256769;22;19964;-91
2023/01/16 01:34:36;;;;;;;;;;;;;;;;;;6256387;22;19959;-92
2023/01/16 01:37:02;;;;;;;;;;;;;;;;;;6256713;22;19915;-91
2023/01/16 01:39:28;;;;;;;;;;;;;;;;;;6256380;22;19914;-92
2023/01/16 01:44:38;;;;;;;;;;;;;;;;;;6282313;22;19926;-92
2023/01/16 01:47:04;;;;;;;;;;;;;;;;;;6256775;22;20352;-92
2023/01/16 01:49:30;;;;;;;;;;;;;;;;;;6256043;22;19926;-91
2023/01/16 01:51:56;;;;;;;;;;;;;;;;;;6282336;22;19965;-91
2023/01/16 01:54:22;;;;;;;;;;;;;;;;;;6256524;22;19915;-92
2023/01/16 01:56:48;;;;;;;;;;;;;;;;;;6256434;22;19914;-91
2023/01/16 01:59:13;;;;;;;;;;;;;;;;;;6255982;22;19922;-92
2023/01/16 02:01:39;;;;;;;;;;;;;;;;;;6256650;22;20333;-92
2023/01/16 02:04:05;;;;;;;;;;;;;;;;;;6256350;22;19925;-92
2023/01/16 02:06:31;;;;;;;;;;;;;;;;;;6256566;22;19915;-91
2023/01/16 02:08:57;;;;;;;;;;;;;;;;;;6256111;22;19914;-92
2023/01/16 02:11:26;;;;;;;;;;;;;;;;;;6256300;22;19919;-90
2023/01/16 02:13:52;;;;;;;;;;;;;;;;;;6256651;22;19915;-92
2023/01/16 02:19:15;;;;;;;;;;;;;;;;;;6281548;22;19922;-92
2023/01/16 02:21:41;;;;;;;;;;;;;;;;;;6256577;22;20517;-92
2023/01/16 02:24:07;;;;;;;;;;;;;;;;;;6256208;22;19926;-92
2023/01/16 02:26:33;;;;;;;;;;;;;;;;;;6256260;22;19915;-92
2023/01/16 02:28:59;;;;;;;;;;;;;;;;;;6255662;22;19999;-92
2023/01/16 02:31:25;;;;;;;;;;;;;;;;;;6256374;22;19995;-90
2023/01/16 02:33:50;;;;;;;;;;;;;;;;;;6256288;22;19919;-91
2023/01/16 02:36:16;;;;;;;;;;;;;;;;;;6256345;22;20280;-91
2023/01/16 02:38:42;;;;;;;;;;;;;;;;;;6256127;22;19915;-91
2023/01/16 02:41:08;;;;;;;;;;;;;;;;;;6255608;22;19915;-91
2023/01/16 02:43:34;;;;;;;;;;;;;;;;;;6255846;22;19915;-92
2023/01/16 02:46:00;;;;;;;;;;;;;;;;;;6255884;22;20361;-91
2023/01/16 02:48:26;;;;;;;;;;;;;;;;;;6256221;22;19985;-90
2023/01/16 02:50:52;;;;;;;;;;;;;;;;;;6255551;22;20346;-92
2023/01/16 02:53:18;;;;;;;;;;;;;;;;;;6256034;22;19921;-91
2023/01/16 02:55:44;;;;;;;;;;;;;;;;;;6255964;22;19951;-91
2023/01/16 02:58:11;;;;;;;;;;;;;;;;;;6255763;22;19918;-91
2023/01/16 03:00:37;;;;;;;;;;;;;;;;;;6255633;22;19915;-92
2023/01/16 03:03:03;;;;;;;;;;;;;;;;;;6255952;22;19947;-91
2023/01/16 03:05:29;;;;;;;;;;;;;;;;;;6255749;22;19993;-90
2023/01/16 03:07:55;;;;;;;;;;;;;;;;;;6255947;22;19915;-91
2023/01/16 03:10:20;;;;;;;;;;;;;;;;;;6255273;22;19919;-91
2023/01/16 03:12:46;;;;;;;;;;;;;;;;;;6255768;22;20300;-91
2023/01/16 03:15:12;;;;;;;;;;;;;;;;;;6255607;22;19946;-91
2023/01/16 03:17:38;;;;;;;;;;;;;;;;;;6255784;22;19942;-91
2023/01/16 03:20:04;;;;;;;;;;;;;;;;;;6255357;22;19960;-92
2023/01/16 03:22:30;;;;;;;;;;;;;;;;;;6255796;22;19976;-92
2023/01/16 03:24:56;;;;;;;;;;;;;;;;;;6255731;22;19923;-92
2023/01/16 03:27:22;;;;;;;;;;;;;;;;;;6281237;22;19922;-93
2023/01/16 03:29:48;;;;;;;;;;;;;;;;;;6280701;22;19915;-91
2023/01/16 03:32:14;;;;;;;;;;;;;;;;;;6255644;22;19915;-91
2023/01/16 03:34:40;;;;;;;;;;;;;;;;;;6255702;22;20234;-91
2023/01/16 03:37:05;;;;;;;;;;;;;;;;;;6281058;22;19915;-90
2023/01/16 03:39:31;;;;;;;;;;;;;;;;;;6280663;22;19922;-91
2023/01/16 03:41:57;;;;;;;;;;;;;;;;;;6255700;22;20257;-91
2023/01/16 03:44:25;;;;;;;;;;;;;;;;;;6281170;22;19923;-92
2023/01/16 03:46:51;;;;;;;;;;;;;;;;;;6255735;22;19919;-91
2023/01/16 03:49:17;;;;;;;;;;;;;;;;;;6254933;22;19922;-92
2023/01/16 03:51:43;;;;;;;;;;;;;;;;;;6255711;22;19921;-91
2023/01/16 03:54:08;;;;;;;;;;;;;;;;;;6255709;22;19967;-91
2023/01/16 03:56:34;;;;;;;;;;;;;;;;;;6255730;22;19967;-92
2023/01/16 03:59:00;;;;;;;;;;;;;;;;;;6280441;22;19993;-91
2023/01/16 04:01:26;;;;;;;;;;;;;;;;;;6255392;22;20359;-91
2023/01/16 04:03:52;;;;;;;;;;;;;;;;;;6255330;22;19946;-91
2023/01/16 04:06:18;;;;;;;;;;;;;;;;;;6255485;22;19946;-90
2023/01/16 04:08:44;;;;;;;;;;;;;;;;;;6280971;22;20360;-92
2023/01/16 04:11:10;;;;;;;;;;;;;;;;;;6254931;22;19915;-91
2023/01/16 04:13:36;;;;;;;;;;;;;;;;;;6255110;22;19921;-91
2023/01/16 04:16:02;;;;;;;;;;;;;;;;;;6255552;22;20253;-92
2023/01/16 04:18:27;;;;;;;;;;;;;;;;;;6281012;22;19915;-92
2023/01/16 04:20:53;;;;;;;;;;;;;;;;;;6280301;22;19922;-91
2023/01/16 04:23:19;;;;;;;;;;;;;;;;;;6255557;22;20249;-92
2023/01/16 04:25:45;;;;;;;;;;;;;;;;;;6255222;22;19925;-91
2023/01/16 04:28:11;;;;;;;;;;;;;;;;;;6255118;22;19964;-91
2023/01/16 04:30:37;;;;;;;;;;;;;;;;;;6254754;22;20383;-92
2023/01/16 04:33:03;;;;;;;;;;;;;;;;;;6255266;22;19919;-91
2023/01/16 04:35:29;;;;;;;;;;;;;;;;;;6255276;22;20348;-91
2023/01/16 04:37:55;;;;;;;;;;;;;;;;;;6255174;22;19915;-91
2023/01/16 04:40:21;;;;;;;;;;;;;;;;;;6280321;22;19919;-91
2023/01/16 04:42:46;;;;;;;;;;;;;;;;;;6255276;22;20333;-92
2023/01/16 04:45:12;;;;;;;;;;;;;;;;;;6255082;22;19963;-91
2023/01/16 04:47:38;;;;;;;;;;;;;;;;;;6255277;22;19950;-92
2023/01/16 04:50:04;;;;;;;;;;;;;;;;;;6254997;22;19914;-91
2023/01/16 04:52:30;;;;;;;;;;;;;;;;;;6255441;22;19931;-92
2023/01/16 04:54:56;;;;;;;;;;;;;;;;;;6280770;22;19953;-92
2023/01/16 04:57:22;;;;;;;;;;;;;;;;;;6255417;22;19989;-93
2023/01/16 04:59:48;;;;;;;;;;;;;;;;;;6254763;22;19938;-91
2023/01/16 05:02:14;;;;;;;;;;;;;;;;;;6254727;22;19922;-92
2023/01/16 05:04:40;;;;;;;;;;;;;;;;;;6252915;22;19919;-91
2023/01/16 05:07:06;;;;;;;;;;;;;;;;;;6254594;22;19984;-91
2023/01/16 05:09:31;;;;;;;;;;;;;;;;;;6253951;22;19999;-92
2023/01/16 05:11:57;;;;;;;;;;;;;;;;;;6256386;22;20389;-92
2023/01/16 05:14:23;;;;;;;;;;;;;;;;;;6256414;22;19922;-90
2023/01/16 05:16:49;;;;;;;;;;;;;;;;;;6256253;22;19921;-92
2023/01/16 05:19:15;;;;;;;;;;;;;;;;;;6255743;22;19919;-92
2023/01/16 05:21:41;;;;;;;;;;;;;;;;;;6256353;22;19919;-92
2023/01/16 05:24:07;;;;;;;;;;;;;;;;;;6255941;22;19930;-91
2023/01/16 05:26:33;;;;;;;;;;;;;;;;;;6256230;22;19914;-92
2023/01/16 05:28:59;;;;;;;;;;;;;;;;;;6255603;22;19919;-91
2023/01/16 05:31:25;;;;;;;;;;;;;;;;;;6256248;22;19915;-92
2023/01/16 05:36:31;;;;;;;;;;;;;;;;;;6282305;22;19919;-92
2023/01/16 05:38:57;;;;;;;;;;;;;;;;;;6255653;22;19964;-91
2023/01/16 05:41:23;;;;;;;;;;;;;;;;;;6255978;22;20300;-92
2023/01/16 05:43:49;;;;;;;;;;;;;;;;;;6256088;22;19914;-91
2023/01/16 05:46:14;;;;;;;;;;;;;;;;;;6281746;22;19985;-92
2023/01/16 05:48:40;;;;;;;;;;;;;;;;;;6256018;22;20281;-92
2023/01/16 05:51:06;;;;;;;;;;;;;;;;;;6255434;22;19986;-91
2023/01/16 05:53:32;;;;;;;;;;;;;;;;;;6256136;22;19918;-92
2023/01/16 05:55:58;;;;;;;;;;;;;;;;;;6256126;22;19921;-91
2023/01/16 05:58:24;;;;;;;;;;;;;;;;;;6255812;22;19987;-92
2023/01/16 06:00:50;;;;;;;;;;;;;;;;;;6255395;22;19922;-92
2023/01/16 06:03:17;;;;;;;;;;;;;;;;;;6255992;22;19922;-91
2023/01/16 06:05:42;;;;;;;;;;;;;;;;;;6255864;22;19927;-92
2023/01/16 06:08:08;;;;;;;;;;;;;;;;;;6255973;22;19915;-92
2023/01/16 06:10:34;;;;;;;;;;;;;;;;;;6254983;22;19919;-92
2023/01/16 06:13:00;;;;;;;;;;;;;;;;;;6255973;22;19918;-91
2023/01/16 06:15:26;;;;;;;;;;;;;;;;;;6255793;22;19915;-91
2023/01/16 06:17:53;;;;;;;;;;;;;;;;;;6255806;22;19919;-92
2023/01/16 06:20:19;;;;;;;;;;;;;;;;;;6255394;22;20337;-89
2023/01/16 06:22:45;;;;;;;;;;;;;;;;;;6255865;22;19922;-92
2023/01/16 06:25:11;;;;;;;;;;;;;;;;;;6255485;22;19930;-93
2023/01/16 06:27:37;;;;;;;;;;;;;;;;;;6255495;22;19921;-92
2023/01/16 06:30:03;;;;;;;;;;;;;;;;;;6255191;22;19919;-90
2023/01/16 06:32:29;;;;;;;;;;;;;;;;;;6255398;22;20337;-92
2023/01/16 06:34:55;;;;;;;;;;;;;;;;;;6255314;22;19942;-91
2023/01/16 06:37:21;;;;;;;;;;;;;;;;;;6255375;22;20289;-91
2023/01/16 06:39:46;;;;;;;;;;;;;;;;;;6254909;22;19947;-92
2023/01/16 06:42:12;;;;;;;;;;;;;;;;;;6255530;22;19950;-92
2023/01/16 06:44:38;;;;;;;;;;;;;;;;;;6255323;22;19966;-91
2023/01/16 06:47:06;;;;;;;;;;;;;;;;;;6255336;22;19915;-92
2023/01/16 06:49:32;;;;;;;;;;;;;;;;;;6254852;22;19915;-92
2023/01/16 06:52:00;;;;;;;;;;;;;;;;;;6255497;22;19950;-92
2023/01/16 06:54:25;;;;;;;;;;;;;;;;;;6255625;22;19915;-92
2023/01/16 06:56:51;;;;;;;;;;;;;;;;;;6255307;22;19990;-92
2023/01/16 06:59:17;;;;;;;;;;;;;;;;;;6280602;22;20257;-91
2023/01/16 07:01:43;;;;;;;;;;;;;;;;;;6255256;22;20256;-92
2023/01/16 07:04:09;;;;;;;;;;;;;;;;;;6255188;22;20286;-92
2023/01/16 07:06:36;;;;;;;;;;;;;;;;;;6280808;22;19914;-93
2023/01/16 07:09:02;;;;;;;;;;;;;;;;;;6254817;22;19993;-91
2023/01/16 07:11:28;;;;;;;;;;;;;;;;;;6255373;22;20367;-93
2023/01/16 07:22:34;;;;;;;;;;;;;;;;;;6255042;22;19914;-92
2023/01/16 07:22:37;;;;;;;;;;;;;;;;;;6280748;22;19954;-92
2023/01/16 07:25:03;;;;;;;;;;;;;;;;;;6255727;22;19925;-91
2023/01/16 07:27:29;;;;;;;;;;;;;;;;;;6254875;22;19985;-91
2023/01/16 07:29:55;;;;;;;;;;;;;;;;;;6254536;22;19958;-93
2023/01/16 07:32:21;;;;;;;;;;;;;;;;;;6280180;22;19985;-92
2023/01/16 07:34:47;;;;;;;;;;;;;;;;;;6255008;22;19986;-92
2023/01/16 07:37:13;;;;;;;;;;;;;;;;;;6254879;22;19915;-92
2023/01/16 07:39:39;;;;;;;;;;;;;;;;;;6254272;22;20328;-92
2023/01/16 07:42:05;;;;;;;;;;;;;;;;;;6280564;22;19915;-92
2023/01/16 07:44:30;;;;;;;;;;;;;;;;;;6280491;22;19959;-91
2023/01/16 07:46:56;;;;;;;;;;;;;;;;;;6255404;22;20333;-91
2023/01/16 07:49:22;;;;;;;;;;;;;;;;;;6254240;22;19915;-92
2023/01/16 07:51:48;;;;;;;;;;;;;;;;;;6254972;22;19914;-92
2023/01/16 07:54:14;;;;;;;;;;;;;;;;;;6280494;22;19983;-89
2023/01/16 07:56:40;;;;;;;;;;;;;;;;;;6254886;22;20394;-92
2023/01/16 07:59:06;;;;;;;;;;;;;;;;;;6254349;22;19998;-92
2023/01/16 08:01:32;;;;;;;;;;;;;;;;;;6254864;22;20033;-93
2023/01/16 08:03:58;;;;;;;;;;;;;;;;;;6254964;22;20353;-90
2023/01/16 08:06:23;;;;;;;;;;;;;;;;;;6254926;22;19968;-92
2023/01/16 08:08:49;;;;;;;;;;;;;;;;;;6254229;22;19919;-91
2023/01/16 08:14:00;;;;;;;;;;;;;;;;;;6280068;22;19965;-92
2023/01/16 08:16:26;;;;;;;;;;;;;;;;;;6254622;22;19915;-92
2023/01/16 08:18:52;;;;;;;;;;;;;;;;;;6254183;22;19950;-92
2023/01/16 08:21:18;;;;;;;;;;;;;;;;;;6254295;22;19915;-93
2023/01/16 08:23:44;;;;;;;;;;;;;;;;;;6254785;22;20048;-92
2023/01/16 08:26:10;;;;;;;;;;;;;;;;;;6280529;22;19958;-91
2023/01/16 08:28:36;;;;;;;;;;;;;;;;;;6254486;22;19922;-91
2023/01/16 08:31:01;;;;;;;;;;;;;;;;;;6254245;22;19921;-92
2023/01/16 08:33:27;;;;;;;;;;;;;;;;;;6254640;22;20325;-92
2023/01/16 08:35:53;;;;;;;;;;;;;;;;;;6254425;22;19915;-93
2023/01/16 08:38:19;;;;;;;;;;;;;;;;;;6254018;22;19915;-92
2023/01/16 08:40:45;;;;;;;;;;;;;;;;;;6253810;22;20336;-93
2023/01/16 08:51:35;;;;;;;;;;;;;;;;;;6281431;22;20325;-92
2023/01/16 08:54:01;;;;;;;;;;;;;;;;;;6282115;22;19954;-92
2023/01/16 08:56:27;;;;;;;;;;;;;;;;;;6256134;22;19958;-93
2023/01/16 08:58:53;;;;;;;;;;;;;;;;;;6255547;22;19915;-92
2023/01/16 09:01:19;;;;;;;;;;;;;;;;;;6257694;22;19914;-93
2023/01/16 09:03:45;;;;;;;;;;;;;;;;;;6256826;22;19937;-92
2023/01/16 09:06:11;;;;;;;;;;;;;;;;;;6256833;22;19980;-92
2023/01/16 09:08:37;;;;;;;;;;;;;;;;;;6255899;22;20287;-93
2023/01/16 09:13:51;;;;;;;;;;;;;;;;;;6281194;22;19915;-94
2023/01/16 09:16:17;;;;;;;;;;;;;;;;;;6256031;22;19919;-94
2023/01/16 09:18:42;;;;;;;;;;;;;;;;;;6256744;22;20358;-94
2023/01/16 09:21:08;;;;;;;;;;;;;;;;;;6255671;22;19989;-92
2023/01/16 09:23:34;;;;;;;;;;;;;;;;;;6256582;22;19914;-93
2023/01/16 09:26:00;;;;;;;;;;;;;;;;;;6256314;22;19919;-94
2023/01/16 09:28:26;;;;;;;;;;;;;;;;;;6256196;22;19914;-94
2023/01/16 09:30:52;;;;;;;;;;;;;;;;;;6281326;22;19919;-92
2023/01/16 09:33:18;;;;;;;;;;;;;;;;;;6255998;22;19922;-93
2023/01/16 09:35:44;;;;;;;;;;;;;;;;;;6256162;22;19949;-91
2023/01/16 09:38:10;;;;;;;;;;;;;;;;;;6254801;22;19919;-92
2023/01/16 09:40:36;;;;;;;;;;;;;;;;;;6255242;22;19922;-93
2023/01/16 09:45:46;;;;;;;;;;;;;;;;;;6281558;22;19919;-92
2023/01/16 09:48:12;;;;;;;;;;;;;;;;;;6255698;22;19914;-93
2023/01/16 09:50:38;;;;;;;;;;;;;;;;;;6255439;22;20341;-93
2023/01/16 09:58:36;;;;;;;;;;;;;;;;;;6281439;22;19972;-93
2023/01/16 10:01:02;;;;;;;;;;;;;;;;;;6255557;22;19914;-94
2023/01/16 10:03:28;;;;;;;;;;;;;;;;;;6255876;22;19918;-94
2023/01/16 10:05:54;;;;;;;;;;;;;;;;;;6255957;22;19919;-93
2023/01/16 10:08:20;;;;;;;;;;;;;;;;;;6255395;22;19915;-93
2023/01/16 10:10:46;;;;;;;;;;;;;;;;;;6255341;22;20412;-94
2023/01/16 10:13:12;;;;;;;;;;;;;;;;;;6255917;22;19914;-93
2023/01/16 10:15:38;;;;;;;;;;;;;;;;;;6256311;22;19922;-93
2023/01/16 10:18:04;;;;;;;;;;;;;;;;;;6254435;22;19965;-96
2023/01/16 10:20:30;;;;;;;;;;;;;;;;;;6255277;22;19969;-94
2023/01/16 10:22:55;;;;;;;;;;;;;;;;;;6254170;22;19976;-94
2023/01/16 10:25:21;;;;;;;;;;;;;;;;;;6255744;22;19932;-95
2023/01/16 10:27:48;;;;;;;;;;;;;;;;;;6255888;22;19915;-95
2023/01/16 10:30:14;;;;;;;;;;;;;;;;;;6255319;22;19915;-94
2023/01/16 10:32:40;;;;;;;;;;;;;;;;;;6255290;22;19952;-92
2023/01/16 10:35:06;;;;;;;;;;;;;;;;;;6255313;22;19914;-92
2023/01/16 10:37:32;;;;;;;;;;;;;;;;;;6255786;22;19918;-95
2023/01/16 10:39:58;;;;;;;;;;;;;;;;;;6255902;22;19922;-92
2023/01/16 10:50:38;;;;;;;;;;;;;;;;;;6280902;22;19915;-96
2023/01/16 10:53:04;;;;;;;;;;;;;;;;;;6255875;22;19937;-92
2023/01/16 10:55:30;;;;;;;;;;;;;;;;;;6255986;22;19922;-95
2023/01/16 10:58:03;;;;;;;;;;;;;;;;;;6255621;22;19944;-95
2023/01/16 11:00:29;;;;;;;;;;;;;;;;;;6255501;22;19915;-94
2023/01/16 11:02:55;;;;;;;;;;;;;;;;;;6255548;22;20356;-95
2023/01/16 11:05:21;;;;;;;;;;;;;;;;;;6281400;22;19922;-96
2023/01/16 11:07:47;;;;;;;;;;;;;;;;;;6255372;22;19926;-93
2023/01/16 11:10:13;;;;;;;;;;;;;;;;;;6254966;22;19914;-95
2023/01/16 11:20:53;;;;;;;;;;;;;;;;;;6280614;22;19953;-93
2023/01/16 11:23:19;;;;;;;;;;;;;;;;;;6255415;22;19915;-94
2023/01/16 11:25:46;;;;;;;;;;;;;;;;;;6255384;22;20336;-95
2023/01/16 11:28:12;;;;;;;;;;;;;;;;;;6255139;22;20328;-93
2023/01/16 11:30:41;;;;;;;;;;;;;;;;;;6254862;22;19985;-93
2023/01/16 11:33:08;;;;;;;;;;;;;;;;;;6255238;22;19915;-93
2023/01/16 11:35:34;;;;;;;;;;;;;;;;;;6255461;22;19914;-93
2023/01/16 11:38:02;;;;;;;;;;;;;;;;;;6255533;22;20329;-93
2023/01/16 11:40:28;;;;;;;;;;;;;;;;;;6254925;22;19917;-93
2023/01/16 11:48:33;;;;;;;;;;;;;;;;;;6281196;22;19921;-93
2023/01/16 11:50:59;;;;;;;;;;;;;;;;;;6254891;22;19972;-93
2023/01/16 11:53:25;;;;;;;;;;;;;;;;;;6254227;22;19915;-93
2023/01/16 11:55:51;;;;;;;;;;;;;;;;;;6254694;22;19919;-93
2023/01/16 11:58:17;;;;;;;;;;;;;;;;;;6254486;22;20237;-93
2023/01/16 12:00:43;;;;;;;;;;;;;;;;;;6254433;22;19915;-93
2023/01/16 12:03:09;;;;;;;;;;;;;;;;;;6254664;22;19915;-93
2023/01/16 12:05:53;;;;;;;;;;;;;;;;;;6254930;22;20617;-94
2023/01/16 12:08:22;;;;;;;;;;;;;;;;;;6253419;22;20704;-94
2023/01/16 12:10:48;;;;;;;;;;;;;;;;;;6252946;22;19921;-94
2023/01/16 12:15:59;;;;;;;;;;;;;;;;;;6280261;22;19915;-95
2023/01/16 12:18:30;;;;;;;;;;;;;;;;;;6254854;22;19915;-94
2023/01/16 12:20:56;;;;;;;;;;;;;;;;;;6254401;22;19923;-92
2023/01/16 12:23:22;;;;;;;;;;;;;;;;;;6254440;22;19960;-94
2023/01/16 12:25:50;;;;;;;;;;;;;;;;;;6254702;22;19926;-93
2023/01/16 12:28:16;;;;;;;;;;;;;;;;;;6254534;22;19918;-93
2023/01/16 12:30:42;;;;;;;;;;;;;;;;;;6254527;22;20260;-92
2023/01/16 12:33:11;;;;;;;;;;;;;;;;;;6255034;22;19921;-93
2023/01/16 12:35:37;;;;;;;;;;;;;;;;;;6255134;22;19914;-94
2023/01/16 12:38:03;;;;;;;;;;;;;;;;;;6255084;22;19968;-95
2023/01/16 12:40:29;;;;;;;;;;;;;;;;;;6254515;22;19937;-94
2023/01/16 12:45:49;;;;;;;;;;;;;;;;;;6280532;22;19919;-94
2023/01/16 12:48:15;;;;;;;;;;;;;;;;;;6255278;22;19915;-96
2023/01/16 12:50:42;;;;;;;;;;;;;;;;;;6254470;22;19961;-96
2023/01/16 12:53:08;;;;;;;;;;;;;;;;;;6255169;22;19957;-95
2023/01/16 12:55:34;;;;;;;;;;;;;;;;;;6254866;22;19958;-95
2023/01/16 12:58:00;;;;;;;;;;;;;;;;;;6254560;22;19922;-94
2023/01/16 13:00:26;;;;;;;;;;;;;;;;;;6254459;22;19922;-94
2023/01/16 13:02:52;;;;;;;;;;;;;;;;;;6255048;22;19922;-94
2023/01/16 13:05:26;;;;;;;;;;;;;;;;;;6252975;22;19919;-95
2023/01/16 13:07:52;;;;;;;;;;;;;;;;;;6254753;22;19919;-93
2023/01/16 13:13:21;;;;;;;;;;;;;;;;;;6279754;22;19919;-95
2023/01/16 13:15:50;;;;;;;;;;;;;;;;;;6254973;22;19914;-95
2023/01/16 13:18:16;;;;;;;;;;;;;;;;;;6254780;22;19919;-94
2023/01/16 13:20:42;;;;;;;;;;;;;;;;;;6254036;22;19915;-92
2023/01/16 13:23:08;;;;;;;;;;;;;;;;;;6254910;22;20341;-94
2023/01/16 13:28:04;;;;;;;;;;;;;;;;;;6280815;22;19976;-93
2023/01/16 13:30:30;;;;;;;;;;;;;;;;;;6255212;22;19915;-94
2023/01/16 13:32:56;;;;;;;;;;;;;;;;;;6256608;22;20333;-95
2023/01/16 13:35:22;;;;;;;;;;;;;;;;;;6257733;22;20364;-95
2023/01/16 13:37:48;;;;;;;;;;;;;;;;;;6258932;22;20250;-95
2023/01/16 13:40:14;;;;;;;;;;;;;;;;;;6255930;22;19918;-95
2023/01/16 13:42:40;;;;;;;;;;;;;;;;;;6256398;22;19972;-96
2023/01/16 13:47:52;;;;;;;;;;;;;;;;;;6282202;22;19919;-96
2023/01/16 13:50:17;;;;;;;;;;;;;;;;;;6256220;22;20363;-95
2023/01/16 13:52:43;;;;;;;;;;;;;;;;;;6256652;22;19914;-94
2023/01/16 13:55:09;;;;;;;;;;;;;;;;;;6256418;22;20341;-96
2023/01/16 13:57:35;;;;;;;;;;;;;;;;;;6256179;22;19964;-95
2023/01/16 14:00:01;;;;;;;;;;;;;;;;;;6255903;22;19922;-95
2023/01/16 14:02:27;;;;;;;;;;;;;;;;;;6256588;22;19922;-95
2023/01/16 14:04:53;;;;;;;;;;;;;;;;;;6256487;22;19926;-93
2023/01/16 14:10:04;;;;;;;;;;;;;;;;;;6281285;22;20286;-96
2023/01/16 14:12:30;;;;;;;;;;;;;;;;;;6256858;22;19915;-96
2023/01/16 14:17:41;;;;;;;;;;;;;;;;;;6284140;22;20032;-96
2023/01/16 14:20:07;;;;;;;;;;;;;;;;;;6257808;22;19946;-95
2023/01/16 14:24:58;;;;;;;;;;;;;;;;;;6285055;22;20295;-96
2023/01/16 14:27:24;;;;;;;;;;;;;;;;;;6259827;22;19915;-96
2023/01/16 14:29:52;;;;;;;;;;;;;;;;;;6258843;22;19915;-95
2023/01/16 14:32:18;;;;;;;;;;;;;;;;;;6257520;22;19914;-96
2023/01/16 14:34:49;;;;;;;;;;;;;;;;;;6258911;22;19921;-96
2023/01/16 14:37:15;;;;;;;;;;;;;;;;;;6272237;22;19925;-95
2023/01/16 14:39:41;;;;;;;;;;;;;;;;;;6272717;22;19919;-94
2023/01/16 14:55:51;;;;;;;;;;;;;;;;;;6284972;22;19915;-96
2023/01/16 14:58:17;;;;;;;;;;;;;;;;;;6256461;22;19915;-96
2023/01/16 15:00:43;;;;;;;;;;;;;;;;;;6255674;22;19922;-96
2023/01/16 15:03:09;;;;;;;;;;;;;;;;;;6256074;22;20321;-96
2023/01/16 15:05:50;;;;;;;;;;;;;;;;;;6256105;22;20698;-96
2023/01/16 15:08:16;;;;;;;;;;;;;;;;;;6255939;22;19921;-96
2023/01/16 15:10:42;;;;;;;;;;;;;;;;;;6255228;22;20295;-96
2023/01/16 15:13:08;;;;;;;;;;;;;;;;;;6281528;22;19926;-96
2023/01/16 15:15:34;;;;;;;;;;;;;;;;;;6255475;22;19922;-96
2023/01/16 15:23:29;;;;;;;;;;;;;;;;;;6281036;22;20333;-96
2023/01/16 15:25:55;;;;;;;;;;;;;;;;;;6255657;22;19968;-96
2023/01/16 15:28:21;;;;;;;;;;;;;;;;;;6255225;22;19922;-96
2023/01/16 15:30:54;;;;;;;;;;;;;;;;;;6255077;22;19981;-96
2023/01/16 15:36:05;;;;;;;;;;;;;;;;;;6281002;22;19993;-96
2023/01/16 15:38:31;;;;;;;;;;;;;;;;;;6255538;22;20135;-96
2023/01/16 15:40:57;;;;;;;;;;;;;;;;;;6254979;22;19919;-96
2023/01/16 15:46:32;;;;;;;;;;;;;;;;;;6280827;22;19923;-96
2023/01/16 15:48:58;;;;;;;;;;;;;;;;;;6254977;22;19915;-96
2023/01/16 15:51:24;;;;;;;;;;;;;;;;;;6255396;22;20401;-96
2023/01/16 15:53:54;;;;;;;;;;;;;;;;;;6255197;22;19914;-96
2023/01/16 15:56:19;;;;;;;;;;;;;;;;;;6255768;22;19968;-96
2023/01/16 15:58:47;;;;;;;;;;;;;;;;;;6254948;22;19915;-94
2023/01/16 16:01:13;;;;;;;;;;;;;;;;;;6255047;22;19915;-96
2023/01/16 16:03:39;;;;;;;;;;;;;;;;;;6255372;22;19965;-96
2023/01/16 16:06:05;;;;;;;;;;;;;;;;;;6255088;22;19919;-96
2023/01/16 16:08:31;;;;;;;;;;;;;;;;;;6255111;22;20401;-96
2023/01/16 16:13:41;;;;;;;;;;;;;;;;;;6284993;22;19926;-96
2023/01/16 16:18:52;;;;;;;;;;;;;;;;;;6300442;22;19926;-94
2023/01/16 16:24:14;;;;;;;;;;;;;;;;;;6318939;22;19926;-96
2023/01/16 16:26:40;;;;;;;;;;;;;;;;;;6267828;22;20248;-96
2023/01/16 16:29:06;;;;;;;;;;;;;;;;;;6259207;22;20558;-96
2023/01/16 16:31:33;;;;;;;;;;;;;;;;;;6280358;22;19915;-95
2023/01/16 16:33:59;;;;;;;;;;;;;;;;;;6264076;22;20266;-96
2023/01/16 16:36:25;;;;;;;;;;;;;;;;;;6257177;22;19915;-96
2023/01/16 16:38:51;;;;;;;;;;;;;;;;;;6256474;22;19990;-96
2023/01/16 16:41:17;;;;;;;;;;;;;;;;;;6264363;22;19926;-96
2023/01/16 16:43:46;;;;;;;;;;;;;;;;;;6272329;22;19914;-96
2023/01/16 16:46:15;;;;;;;;;;;;;;;;;;6263013;22;19939;-96
2023/01/16 16:48:41;;;;;;;;;;;;;;;;;;6256674;22;19930;-96
2023/01/16 16:51:07;;;;;;;;;;;;;;;;;;6253042;22;20301;-94
2023/01/16 16:53:33;;;;;;;;;;;;;;;;;;6254541;22;19987;-95
2023/01/16 16:55:59;;;;;;;;;;;;;;;;;;6254382;22;19990;-95
2023/01/16 16:58:24;;;;;;;;;;;;;;;;;;6254360;22;19950;-95
2023/01/16 17:00:56;;;;;;;;;;;;;;;;;;6254081;22;19968;-95
2023/01/16 17:03:22;;;;;;;;;;;;;;;;;;6255473;22;19939;-96
2023/01/16 17:05:49;;;;;;;;;;;;;;;;;;6255194;22;19922;-96
2023/01/16 17:08:15;;;;;;;;;;;;;;;;;;6260537;22;19964;-95
2023/01/16 17:10:42;;;;;;;;;;;;;;;;;;6257333;22;20346;-96
2023/01/16 17:13:07;;;;;;;;;;;;;;;;;;6256248;22;19954;-96
2023/01/16 17:15:33;;;;;;;;;;;;;;;;;;6261796;22;19919;-96
2023/01/16 17:17:59;;;;;;;;;;;;;;;;;;6258113;22;19915;-95
2023/01/16 17:20:25;;;;;;;;;;;;;;;;;;6257579;22;20645;-95
2023/01/16 17:22:54;;;;;;;;;;;;;;;;;;6268776;22;19919;-96
2023/01/16 17:25:23;;;;;;;;;;;;;;;;;;6272060;22;19915;-95
2023/01/16 17:27:49;;;;;;;;;;;;;;;;;;6295604;22;19949;-93
2023/01/16 17:30:36;;;;;;;;;;;;;;;;;;6330692;22;19914;-96
2023/01/16 17:33:09;;;;;;;;;;;;;;;;;;6294565;22;19915;-96
2023/01/16 17:35:35;;;;;;;;;;;;;;;;;;6260001;22;20336;-96
2023/01/16 17:38:01;;;;;;;;;;;;;;;;;;6268650;22;19923;-96
2023/01/16 17:40:29;;;;;;;;;;;;;;;;;;6274077;22;19915;-96
2023/01/16 17:45:53;;;;;;;;;;;;;;;;;;6293840;22;19939;-96
2023/01/16 17:48:19;;;;;;;;;;;;;;;;;;6269507;22;19976;-96
2023/01/16 17:50:51;;;;;;;;;;;;;;;;;;6303771;22;19926;-96
2023/01/16 17:53:17;;;;;;;;;;;;;;;;;;6268280;22;19915;-96
2023/01/16 17:55:52;;;;;;;;;;;;;;;;;;6272435;22;19915;-96
2023/01/16 17:58:27;;;;;;;;;;;;;;;;;;6270066;22;19915;-96
2023/01/16 18:00:53;;;;;;;;;;;;;;;;;;6269401;22;19926;-96
2023/01/16 18:03:19;;;;;;;;;;;;;;;;;;6264922;22;19915;-96
2023/01/16 18:05:46;;;;;;;;;;;;;;;;;;6263462;22;19945;-95
2023/01/16 18:08:13;;;;;;;;;;;;;;;;;;6270658;22;19930;-96
2023/01/16 18:10:40;;;;;;;;;;;;;;;;;;6274095;22;19940;-93
2023/01/16 18:18:40;;;;;;;;;;;;;;;;;;6290835;22;19915;-96
2023/01/16 18:23:50;;;;;;;;;;;;;;;;;;6292960;22;19915;-96
2023/01/16 18:26:16;;;;;;;;;;;;;;;;;;6257883;22;19922;-96
2023/01/16 18:28:43;;;;;;;;;;;;;;;;;;6256573;22;19923;-94
2023/01/16 18:31:08;;;;;;;;;;;;;;;;;;6256194;22;20333;-96
2023/01/16 18:33:34;;;;;;;;;;;;;;;;;;6256613;22;19953;-96
2023/01/16 18:36:00;;;;;;;;;;;;;;;;;;6257309;22;19915;-96
2023/01/16 19:04:03;;;;;;;;;;;;;;;;;;6320241;22;19915;-96
2023/01/16 19:06:29;;;;;;;;;;;;;;;;;;6269746;22;19919;-96
2023/01/16 19:09:05;;;;;;;;;;;;;;;;;;6293702;22;19918;-96
2023/01/16 19:11:31;;;;;;;;;;;;;;;;;;6270590;22;19915;-96